Time;durP1;ratioP1;P1;durP2;ratioP2;P2;SDS_P1;SDS_P2;PMS_P1;PMS_P2;Temp;Humidity;BMP_temperature;BMP_pressure;BME280_temperature;BME280_humidity;BME280_pressure;Samples;Min_cycle;Max_cycle;Signal;HPM_P1;HPM_P2
2021/11/11 00:03:42;;;;;;;56.37;26.13;;;;;2.90;101925.00;;;;10404240;28;20261;-79
2021/11/11 00:08:45;;;;;;;70.57;27.90;;;;;3.00;101914.00;;;;10402655;28;20936;-79
2021/11/11 00:13:46;;;;;;;58.30;28.07;;;;;3.10;101904.00;;;;10403459;28;20219;-79
2021/11/11 00:18:48;;;;;;;63.43;26.80;;;;;3.20;101898.00;;;;10403164;28;20207;-79
2021/11/11 00:23:50;;;;;;;62.10;28.53;;;;;3.30;101886.00;;;;10402824;28;20195;-79
2021/11/11 00:28:52;;;;;;;59.70;27.37;;;;;3.40;101902.00;;;;10385718;28;20209;-79
2021/11/11 00:33:54;;;;;;;64.97;26.90;;;;;3.30;101896.00;;;;10443195;28;20253;-79
2021/11/11 00:38:56;;;;;;;63.43;25.53;;;;;3.00;101890.00;;;;10425859;28;20256;-79
2021/11/11 00:44:02;;;;;;;53.30;24.13;;;;;2.90;101891.00;;;;10410388;28;20222;-79
2021/11/11 00:49:07;;;;;;;61.53;24.70;;;;;2.70;101871.00;;;;10426912;28;20619;-79
2021/11/11 00:54:09;;;;;;;58.33;24.57;;;;;2.60;101877.00;;;;10409955;28;20210;-79
2021/11/11 00:59:11;;;;;;;48.07;22.33;;;;;2.50;101870.00;;;;10409045;28;20351;-79
2021/11/11 01:04:13;;;;;;;45.73;23.13;;;;;2.40;101872.00;;;;10426113;28;20208;-79
2021/11/11 01:09:15;;;;;;;48.03;24.23;;;;;2.30;101877.00;;;;10425814;28;20206;-79
2021/11/11 01:14:17;;;;;;;54.47;23.70;;;;;2.30;101889.00;;;;10422353;28;20284;-79
2021/11/11 01:19:20;;;;;;;57.60;24.33;;;;;2.20;101899.00;;;;10428885;28;20198;-79
2021/11/11 01:24:22;;;;;;;55.30;25.57;;;;;2.30;101895.00;;;;10407883;28;20281;-79
2021/11/11 01:29:24;;;;;;;55.23;25.27;;;;;2.40;101905.00;;;;10437866;28;20981;-79
2021/11/11 01:34:28;;;;;;;57.37;27.03;;;;;2.60;101892.00;;;;10383180;28;20257;-79
2021/11/11 01:39:34;;;;;;;56.13;27.83;;;;;2.80;101879.00;;;;10350929;28;20547;-79
2021/11/11 01:44:51;;;;;;;61.90;26.77;;;;;2.90;101881.00;;;;10351397;28;20201;-79
2021/11/11 01:49:59;;;;;;;56.07;28.47;;;;;2.90;101882.00;;;;10350892;28;20284;-79
2021/11/11 01:55:01;;;;;;;62.63;28.53;;;;;2.90;101877.00;;;;10382335;28;20265;-79
2021/11/11 02:00:17;;;;;;;59.77;29.00;;;;;2.90;101883.00;;;;10365644;28;20682;-80
2021/11/11 02:05:22;;;;;;;53.10;27.23;;;;;2.90;101862.00;;;;10382377;28;20183;-79
2021/11/11 02:10:25;;;;;;;57.03;25.47;;;;;2.80;101869.00;;;;10371243;28;20223;-79
2021/11/11 02:15:28;;;;;;;54.03;25.80;;;;;2.70;101858.00;;;;10400615;28;20329;-79
2021/11/11 02:20:36;;;;;;;49.40;23.90;;;;;2.60;101872.00;;;;10422736;28;20676;-79
2021/11/11 02:25:45;;;;;;;43.57;23.83;;;;;2.50;101870.00;;;;10422180;28;20206;-79
2021/11/11 02:30:51;;;;;;;52.40;25.13;;;;;2.50;101869.00;;;;10411102;28;20234;-79
2021/11/11 02:36:00;;;;;;;57.37;26.77;;;;;2.70;101870.00;;;;10392842;28;20246;-79
2021/11/11 02:41:05;;;;;;;63.53;27.03;;;;;2.70;101870.00;;;;10411098;28;20249;-80
2021/11/11 02:46:07;;;;;;;51.60;26.43;;;;;2.80;101870.00;;;;10421165;28;20205;-79
2021/11/11 02:51:10;;;;;;;70.93;30.50;;;;;3.00;101863.00;;;;10401699;28;20300;-79
2021/11/11 02:56:12;;;;;;;65.00;30.67;;;;;3.10;101858.00;;;;10437656;28;20233;-79
2021/11/11 03:01:19;;;;;;;67.77;32.20;;;;;3.30;101860.00;;;;10404864;28;20194;-79
2021/11/11 03:06:21;;;;;;;65.13;30.63;;;;;3.30;101853.00;;;;10420674;28;20613;-79
2021/11/11 03:11:28;;;;;;;58.30;29.50;;;;;3.40;101848.00;;;;10404322;28;20237;-79
2021/11/11 03:16:40;;;;;;;58.43;28.87;;;;;3.30;101846.00;;;;10437252;28;20221;-79
2021/11/11 03:21:44;;;;;;;53.30;28.70;;;;;3.30;101834.00;;;;10420055;28;20252;-79
2021/11/11 03:26:49;;;;;;;60.43;30.40;;;;;3.30;101848.00;;;;10428374;28;20197;-78
2021/11/11 03:31:51;;;;;;;61.53;31.77;;;;;3.40;101842.00;;;;10452046;28;21046;-79
2021/11/11 03:36:55;;;;;;;65.30;31.97;;;;;3.50;101852.00;;;;10439363;28;20275;-79
2021/11/11 03:41:58;;;;;;;63.40;31.27;;;;;3.60;101853.00;;;;10427778;28;20206;-80
2021/11/11 03:47:03;;;;;;;58.67;28.70;;;;;3.50;101852.00;;;;10428072;28;20205;-80
2021/11/11 03:52:07;;;;;;;57.03;29.73;;;;;3.50;101862.00;;;;10395160;28;20198;-80
2021/11/11 03:57:09;;;;;;;61.90;31.23;;;;;3.60;101855.00;;;;10427372;28;20206;-79
2021/11/11 04:02:13;;;;;;;59.30;30.93;;;;;3.60;101857.00;;;;10411163;28;20665;-80
2021/11/11 04:07:16;;;;;;;63.03;30.33;;;;;3.60;101864.00;;;;10426716;28;20195;-79
2021/11/11 04:12:20;;;;;;;57.50;28.53;;;;;3.70;101862.00;;;;10417622;28;20683;-79
2021/11/11 04:17:22;;;;;;;64.73;32.83;;;;;3.70;101871.00;;;;10410497;28;21007;-79
2021/11/11 04:22:24;;;;;;;54.43;27.50;;;;;3.70;101873.00;;;;10394661;28;20595;-79
2021/11/11 04:27:32;;;;;;;53.87;27.93;;;;;3.70;101879.00;;;;10410984;28;20205;-80
2021/11/11 04:32:36;;;;;;;55.77;28.60;;;;;3.70;101856.00;;;;10397117;28;20263;-80
2021/11/11 04:48:15;;;;;;;57.70;30.43;;;;;3.80;101864.00;;;;10376375;28;20194;-80
2021/11/11 05:03:59;;;;;;;53.90;29.27;;;;;4.10;101876.00;;;;10366934;28;20218;-79
2021/11/11 05:09:03;;;;;;;76.47;33.00;;;;;4.20;101883.00;;;;10383927;28;20305;-80
2021/11/11 05:14:08;;;;;;;61.80;32.80;;;;;4.30;101888.00;;;;10374031;28;20207;-79
2021/11/11 05:19:10;;;;;;;77.03;35.27;;;;;4.40;101887.00;;;;10382779;28;20207;-80
2021/11/11 05:24:12;;;;;;;69.77;34.47;;;;;4.60;101885.00;;;;10398684;28;20203;-80
2021/11/11 05:29:17;;;;;;;78.50;35.70;;;;;4.80;101890.00;;;;10383932;28;20295;-79
2021/11/11 05:34:20;;;;;;;75.17;35.37;;;;;4.90;101890.00;;;;10429782;28;20855;-79
2021/11/11 05:39:23;;;;;;;74.17;37.90;;;;;5.00;101900.00;;;;10423273;28;20202;-80
2021/11/11 05:44:25;;;;;;;80.33;37.57;;;;;5.10;101901.00;;;;10454011;28;20224;-80
2021/11/11 05:49:27;;;;;;;77.50;38.23;;;;;5.20;101905.00;;;;10434803;28;20378;-80
2021/11/11 05:54:31;;;;;;;71.40;34.73;;;;;5.20;101909.00;;;;10422721;28;20214;-80
2021/11/11 05:59:39;;;;;;;75.03;37.63;;;;;5.30;101905.00;;;;10405840;28;20302;-79
2021/11/11 06:04:43;;;;;;;60.83;33.23;;;;;5.30;101887.00;;;;10463493;28;20197;-80
2021/11/11 06:09:47;;;;;;;67.53;34.57;;;;;5.40;101898.00;;;;10425069;28;20229;-80
2021/11/11 06:14:49;;;;;;;60.83;34.03;;;;;5.50;101906.00;;;;10388230;28;20222;-80
2021/11/11 06:19:51;;;;;;;62.37;31.77;;;;;5.60;101915.00;;;;10396977;28;20195;-80
2021/11/11 06:24:53;;;;;;;66.97;32.37;;;;;5.60;101920.00;;;;10413017;28;20257;-79
2021/11/11 06:29:56;;;;;;;57.70;28.90;;;;;5.70;101934.00;;;;10386680;28;20261;-79
2021/11/11 06:35:05;;;;;;;50.17;28.33;;;;;5.80;101960.00;;;;10422201;28;20202;-80
2021/11/11 06:40:07;;;;;;;62.33;31.70;;;;;5.80;101960.00;;;;10404780;28;20283;-80
2021/11/11 06:45:11;;;;;;;56.93;31.27;;;;;5.80;101945.00;;;;10420322;28;20200;-79
2021/11/11 06:50:13;;;;;;;64.33;30.57;;;;;5.80;101935.00;;;;10380288;28;20222;-80
2021/11/11 06:55:16;;;;;;;51.60;29.30;;;;;5.80;101957.00;;;;10419468;28;20981;-77
2021/11/11 07:00:18;;;;;;;50.97;28.43;;;;;5.90;101958.00;;;;10436601;28;20261;-79
2021/11/11 07:05:21;;;;;;;55.67;31.90;;;;;5.90;101954.00;;;;10414888;28;20256;-79
2021/11/11 07:10:26;;;;;;;54.90;30.50;;;;;5.90;101965.00;;;;10401696;28;20260;-79
2021/11/11 07:15:28;;;;;;;64.53;34.50;;;;;6.00;101972.00;;;;10418927;28;20217;-79
2021/11/11 07:20:31;;;;;;;73.80;39.90;;;;;6.00;101964.00;;;;10419033;28;20198;-79
2021/11/11 07:25:33;;;;;;;63.47;37.07;;;;;6.00;101976.00;;;;10403196;28;20325;-77
2021/11/11 07:30:35;;;;;;;76.43;41.50;;;;;6.10;101974.00;;;;10418247;28;20249;-77
2021/11/11 07:35:39;;;;;;;71.63;36.50;;;;;6.10;101973.00;;;;10404474;28;20261;-80
2021/11/11 07:40:41;;;;;;;54.17;31.00;;;;;6.10;101972.00;;;;10453650;28;20189;-79
2021/11/11 07:45:43;;;;;;;46.67;27.70;;;;;6.20;101973.00;;;;10417877;28;20198;-76
2021/11/11 07:50:45;;;;;;;59.37;30.67;;;;;6.30;101992.00;;;;10402821;28;20560;-80
2021/11/11 07:55:47;;;;;;;52.33;29.37;;;;;6.30;101999.00;;;;10402693;28;20214;-80
2021/11/11 08:00:49;;;;;;;44.17;26.73;;;;;6.30;101995.00;;;;10435556;28;20195;-80
2021/11/11 08:05:51;;;;;;;51.83;27.23;;;;;6.40;102011.00;;;;10418891;28;20187;-79
2021/11/11 08:10:55;;;;;;;42.33;25.80;;;;;6.40;102014.00;;;;10411916;28;20198;-79
2021/11/11 08:15:57;;;;;;;44.63;26.50;;;;;6.50;102016.00;;;;10431778;28;20203;-80
2021/11/11 08:20:59;;;;;;;47.07;28.23;;;;;6.50;102017.00;;;;10425877;28;20669;-80
2021/11/11 08:26:04;;;;;;;42.07;25.73;;;;;6.60;102018.00;;;;10425654;28;20206;-80
2021/11/11 08:31:06;;;;;;;44.97;26.97;;;;;6.80;102022.00;;;;10405849;28;20257;-79
2021/11/11 08:36:09;;;;;;;44.30;27.63;;;;;6.90;102033.00;;;;10402430;28;20309;-76
2021/11/11 08:41:11;;;;;;;48.27;30.93;;;;;7.00;102039.00;;;;10399941;28;20202;-79
2021/11/11 08:46:14;;;;;;;61.90;34.40;;;;;7.00;102041.00;;;;10414257;28;20245;-79
2021/11/11 08:51:19;;;;;;;43.97;27.03;;;;;7.10;102040.00;;;;10398865;28;20199;-79
2021/11/11 08:56:23;;;;;;;43.63;28.10;;;;;7.20;102033.00;;;;10406179;28;20214;-79
2021/11/11 09:01:31;;;;;;;40.93;26.10;;;;;7.40;102042.00;;;;10411597;28;20202;-79
2021/11/11 09:06:33;;;;;;;45.13;27.87;;;;;7.60;102049.00;;;;10436439;28;20245;-79
2021/11/11 09:11:36;;;;;;;44.63;27.33;;;;;7.90;102047.00;;;;10418916;28;20214;-77
2021/11/11 09:16:38;;;;;;;41.33;26.63;;;;;8.20;102039.00;;;;10404331;28;20775;-76
2021/11/11 09:21:41;;;;;;;44.67;27.63;;;;;8.50;102045.00;;;;10409070;28;20657;-77
2021/11/11 09:26:43;;;;;;;44.70;26.73;;;;;8.70;102045.00;;;;10404798;28;20211;-76
2021/11/11 09:31:45;;;;;;;43.70;25.57;;;;;8.90;102051.00;;;;10408595;28;20313;-77
2021/11/11 09:36:47;;;;;;;39.17;24.87;;;;;9.10;102061.00;;;;10424978;28;20228;-77
2021/11/11 09:41:51;;;;;;;38.57;23.97;;;;;9.30;102061.00;;;;10392905;28;20235;-77
2021/11/11 09:46:56;;;;;;;32.03;21.20;;;;;9.50;102054.00;;;;10429095;28;20206;-77
2021/11/11 09:52:07;;;;;;;29.93;20.83;;;;;9.80;102060.00;;;;10411848;28;20293;-77
2021/11/11 10:02:30;;;;;;;32.77;20.97;;;;;10.50;102048.00;;;;10394688;28;20321;-77
2021/11/11 10:07:32;;;;;;;33.57;20.20;;;;;10.70;102046.00;;;;10439717;28;20208;-76
2021/11/11 10:12:38;;;;;;;31.23;17.87;;;;;10.80;102052.00;;;;10394237;28;20211;-77
2021/11/11 10:17:42;;;;;;;28.13;18.90;;;;;10.90;102047.00;;;;10412604;28;20249;-77
2021/11/11 10:22:44;;;;;;;31.33;18.93;;;;;11.00;102046.00;;;;10408362;28;20205;-77
2021/11/11 10:27:52;;;;;;;28.37;17.53;;;;;11.10;102053.00;;;;10402699;28;20198;-77
2021/11/11 10:32:58;;;;;;;27.67;15.93;;;;;11.10;102052.00;;;;10425895;28;20264;-77
2021/11/11 10:38:07;;;;;;;22.93;13.83;;;;;11.50;102041.00;;;;10403488;28;20217;-77
2021/11/11 10:43:21;;;;;;;26.23;14.73;;;;;11.80;102039.00;;;;10419838;28;20561;-77
2021/11/11 10:48:25;;;;;;;23.00;13.60;;;;;12.10;102043.00;;;;10388076;28;20194;-77
2021/11/11 10:53:34;;;;;;;24.97;14.47;;;;;12.30;102029.00;;;;10403249;28;20280;-77
2021/11/11 10:58:39;;;;;;;31.50;16.83;;;;;12.40;102028.00;;;;10393887;28;20214;-77
2021/11/11 11:03:44;;;;;;;28.67;15.83;;;;;12.50;102034.00;;;;10411011;28;20205;-78
2021/11/11 11:08:56;;;;;;;33.53;17.10;;;;;12.60;102025.00;;;;10408394;28;20198;-78
2021/11/11 11:14:11;;;;;;;33.63;18.30;;;;;12.60;102023.00;;;;10396621;28;20194;-78
2021/11/11 11:19:16;;;;;;;39.40;19.23;;;;;12.40;102016.00;;;;10405062;28;20198;-78
2021/11/11 11:24:21;;;;;;;36.60;19.57;;;;;12.50;102006.00;;;;10418547;28;20224;-78
2021/11/11 11:29:34;;;;;;;36.30;19.67;;;;;12.70;102011.00;;;;10401785;28;20285;-77
2021/11/11 11:34:43;;;;;;;35.53;18.90;;;;;12.70;102002.00;;;;10417004;28;20253;-77
2021/11/11 11:40:16;;;;;;;36.57;17.70;;;;;12.90;102003.00;;;;10387006;28;20210;-78
2021/11/11 11:45:21;;;;;;;30.40;16.80;;;;;12.90;101997.00;;;;10418873;28;20194;-77
2021/11/11 11:50:31;;;;;;;30.80;16.60;;;;;12.80;102007.00;;;;10443556;28;20661;-77
2021/11/11 12:01:14;;;;;;;31.20;16.33;;;;;12.80;101990.00;;;;10399048;28;20203;-78
2021/11/11 12:06:40;;;;;;;25.10;14.80;;;;;12.90;101990.00;;;;10432506;28;20190;-77
2021/11/11 12:39:42;;;;;;;25.47;15.13;;;;;12.80;101964.00;;;;10456907;28;20202;-78
2021/11/11 12:45:21;;;;;;;28.20;14.13;;;;;12.70;101953.00;;;;10408485;28;20277;-77
2021/11/11 12:51:01;;;;;;;27.93;14.57;;;;;12.60;101954.00;;;;10420805;28;20209;-78
2021/11/11 12:56:18;;;;;;;22.30;13.47;;;;;12.60;101948.00;;;;10429667;28;20669;-77
2021/11/11 13:01:29;;;;;;;23.17;14.27;;;;;12.70;101935.00;;;;10418660;28;20199;-77
2021/11/11 13:06:31;;;;;;;27.40;15.10;;;;;12.70;101937.00;;;;10439153;28;20202;-78
2021/11/11 13:11:36;;;;;;;31.93;16.20;;;;;12.70;101934.00;;;;10409424;28;20190;-77
2021/11/11 13:16:37;;;;;;;31.30;16.13;;;;;12.60;101934.00;;;;10388972;28;20214;-77
2021/11/11 16:21:16;;;;;;;28.00;13.60;;;;;10.10;101876.00;;;;10424689;28;20257;-77
2021/11/11 16:26:19;;;;;;;22.47;13.13;;;;;10.00;101870.00;;;;10432051;28;20236;-77
2021/11/11 16:31:21;;;;;;;24.90;12.40;;;;;10.00;101878.00;;;;10427558;28;20308;-77
2021/11/11 16:36:24;;;;;;;20.10;11.43;;;;;9.90;101875.00;;;;10408508;28;20222;-77
2021/11/11 16:41:26;;;;;;;24.17;12.10;;;;;9.90;101870.00;;;;10430076;28;20232;-77
2021/11/11 16:46:32;;;;;;;20.37;11.10;;;;;9.90;101878.00;;;;10409082;28;20217;-77
2021/11/11 16:51:35;;;;;;;24.00;11.33;;;;;9.90;101875.00;;;;10424909;28;20226;-77
2021/11/11 16:56:37;;;;;;;26.93;12.83;;;;;9.90;101882.00;;;;10426862;28;20218;-77
2021/11/11 17:01:39;;;;;;;22.47;11.70;;;;;9.80;101888.00;;;;10428036;28;20221;-77
2021/11/11 17:06:41;;;;;;;23.43;11.27;;;;;9.80;101891.00;;;;10411432;28;20218;-77
2021/11/11 17:11:43;;;;;;;23.87;11.90;;;;;9.80;101882.00;;;;10399613;28;20690;-77
2021/11/11 17:16:51;;;;;;;23.40;11.53;;;;;9.70;101885.00;;;;10444101;28;20218;-77
2021/11/11 17:21:57;;;;;;;25.60;13.20;;;;;9.70;101886.00;;;;10427468;28;20198;-77
2021/11/11 17:32:04;;;;;;;26.33;13.87;;;;;9.70;101894.00;;;;10443800;28;20732;-77
2021/11/11 17:37:07;;;;;;;29.30;14.37;;;;;9.70;101893.00;;;;10427518;28;20288;-78
2021/11/11 17:42:09;;;;;;;26.90;14.90;;;;;9.70;101894.00;;;;10410590;28;20284;-77
2021/11/11 17:47:12;;;;;;;31.73;15.90;;;;;9.70;101901.00;;;;10459995;28;20202;-77
2021/11/11 17:52:18;;;;;;;34.07;15.73;;;;;9.60;101889.00;;;;10442429;28;20229;-77
2021/11/11 17:57:21;;;;;;;27.37;15.07;;;;;9.60;101891.00;;;;10443734;28;20249;-77
2021/11/11 18:02:27;;;;;;;29.93;15.30;;;;;9.60;101887.00;;;;10426623;28;20663;-77
2021/11/11 18:07:33;;;;;;;33.17;17.00;;;;;9.60;101890.00;;;;10426514;28;20206;-78
2021/11/11 18:12:44;;;;;;;36.33;18.67;;;;;9.60;101894.00;;;;10409473;28;20198;-77
2021/11/11 18:17:49;;;;;;;33.47;17.47;;;;;9.50;101888.00;;;;10441843;28;20222;-77
2021/11/11 18:22:53;;;;;;;35.03;18.50;;;;;9.50;101881.00;;;;10425603;28;20202;-77
2021/11/11 18:27:58;;;;;;;33.73;18.73;;;;;9.50;101883.00;;;;10400480;28;20241;-77
2021/11/11 18:33:10;;;;;;;28.30;16.53;;;;;9.50;101884.00;;;;10400120;28;20233;-77
2021/11/11 18:38:27;;;;;;;34.40;17.90;;;;;9.50;101879.00;;;;10407968;28;20214;-77
2021/11/11 18:43:30;;;;;;;38.90;18.90;;;;;9.40;101874.00;;;;10441363;28;20274;-77
2021/11/11 18:48:38;;;;;;;36.30;16.80;;;;;9.40;101856.00;;;;10424760;28;20229;-77
2021/11/11 18:53:42;;;;;;;33.07;17.63;;;;;9.40;101873.00;;;;10424088;28;20198;-77
2021/11/11 18:58:48;;;;;;;36.03;16.70;;;;;9.40;101864.00;;;;10423537;28;20215;-77
2021/11/11 19:03:54;;;;;;;35.60;17.50;;;;;9.30;101873.00;;;;10423433;28;20194;-77
2021/11/11 19:09:09;;;;;;;41.03;21.77;;;;;9.20;101870.00;;;;10440954;28;20202;-77
2021/11/11 19:14:16;;;;;;;42.50;22.03;;;;;9.10;101864.00;;;;10439493;28;20266;-77
2021/11/11 19:19:21;;;;;;;47.17;23.43;;;;;8.90;101865.00;;;;10440216;28;20700;-77
2021/11/11 19:24:23;;;;;;;40.37;20.37;;;;;8.80;101869.00;;;;10423614;28;20198;-77
2021/11/11 19:29:28;;;;;;;39.93;20.33;;;;;8.70;101863.00;;;;10423332;28;20276;-77
2021/11/11 19:34:34;;;;;;;40.80;22.13;;;;;8.60;101854.00;;;;10439902;28;20209;-77
2021/11/11 20:06:25;;;;;;;46.97;21.93;;;;;7.10;101816.00;;;;10399679;28;20202;-77
2021/11/11 20:11:50;;;;;;;49.90;23.17;;;;;6.90;101816.00;;;;10399573;28;20301;-77
2021/11/11 20:49:07;;;;;;;46.63;23.00;;;;;5.60;101744.00;;;;10463405;28;20653;-79
2021/11/11 20:54:21;;;;;;;48.67;22.93;;;;;5.50;101746.00;;;;10453064;28;20281;-79
2021/11/11 21:04:34;;;;;;;53.07;26.40;;;;;5.30;101748.00;;;;10404660;28;20234;-78
2021/11/11 21:20:10;;;;;;;58.03;27.17;;;;;4.90;101752.00;;;;10447948;28;20214;-78
2021/11/11 21:25:16;;;;;;;59.40;26.80;;;;;4.80;101738.00;;;;10402804;28;20625;-78
2021/11/11 21:30:20;;;;;;;52.97;26.83;;;;;4.80;101732.00;;;;10432038;28;20680;-78
2021/11/11 21:35:41;;;;;;;61.67;29.87;;;;;4.70;101730.00;;;;10402821;28;20203;-78
2021/11/11 21:40:44;;;;;;;59.13;29.20;;;;;4.70;101726.00;;;;10430060;28;20202;-78
2021/11/11 21:45:48;;;;;;;55.93;29.13;;;;;4.60;101720.00;;;;10427268;28;20187;-78
2021/11/11 21:50:53;;;;;;;56.17;29.37;;;;;4.50;101729.00;;;;10444316;28;20264;-78
2021/11/11 22:22:56;;;;;;;70.90;36.17;;;;;3.90;101741.00;;;;10400269;28;20202;-78
2021/11/11 22:33:11;;;;;;;72.90;32.80;;;;;3.80;101735.00;;;;10440800;28;20226;-78
2021/11/11 22:38:16;;;;;;;64.47;33.73;;;;;3.70;101731.00;;;;10425471;28;20578;-79
2021/11/11 22:43:20;;;;;;;61.63;31.90;;;;;3.70;101730.00;;;;10409356;28;20198;-78
2021/11/11 22:48:23;;;;;;;62.50;33.00;;;;;3.60;101730.00;;;;10439425;28;20660;-78
2021/11/11 23:04:03;;;;;;;65.20;31.57;;;;;3.30;101730.00;;;;10431611;28;20653;-78
2021/11/11 23:35:09;;;;;;;63.03;30.77;;;;;3.00;101700.00;;;;10423815;28;20213;-78
2021/11/11 23:40:11;;;;;;;53.60;27.97;;;;;2.90;101690.00;;;;10416531;28;20210;-78
2021/11/11 23:45:14;;;;;;;52.53;28.93;;;;;2.90;101691.00;;;;10415652;28;20221;-78
2021/11/11 23:50:33;;;;;;;48.27;26.90;;;;;2.80;101702.00;;;;10415861;28;20653;-77
